createdAt,value
2024-02-10T00:00:08.895Z,99806.00
2024-02-10T00:02:12.114Z,99801.94
2024-02-10T00:04:16.696Z,99796.66
2024-02-10T00:06:19.194Z,99794.84
2024-02-10T00:08:24.139Z,99797.69
2024-02-10T00:10:29.334Z,99795.03
2024-02-10T00:12:32.995Z,99783.94
2024-02-10T00:14:35.886Z,99790.19
2024-02-10T00:16:38.622Z,99779.78
2024-02-10T00:18:42.587Z,99785.94
2024-02-10T00:20:45.167Z,99772.91
2024-02-10T00:22:49.511Z,99777.53
2024-02-10T00:24:52.837Z,99775.75
2024-02-10T00:26:55.656Z,99770.44
2024-02-10T00:28:58.786Z,99776.91
2024-02-10T00:31:01.565Z,99780.50
2024-02-10T00:33:06.108Z,99761.31
2024-02-10T00:35:09.225Z,99764.59
2024-02-10T00:37:19.067Z,99759.38
2024-02-10T00:39:22.614Z,99755.53
2024-02-10T00:41:25.759Z,99759.34
2024-02-10T00:43:28.714Z,99748.88
2024-02-10T00:45:31.844Z,99750.78
2024-02-10T00:47:36.547Z,99744.09
2024-02-10T00:49:40.996Z,99748.63
2024-02-10T00:51:43.917Z,99736.53
2024-02-10T00:53:46.730Z,99734.00
2024-02-10T00:55:49.168Z,99743.09
2024-02-10T00:57:51.592Z,99741.38
2024-02-10T00:59:54.036Z,99747.63
2024-02-10T01:01:56.444Z,99744.47
2024-02-10T01:04:03.201Z,99733.22
2024-02-10T01:06:09.233Z,99726.31
2024-02-10T01:08:12.573Z,99717.91
2024-02-10T01:10:15.459Z,99717.91
2024-02-10T01:12:18.608Z,99712.06
2024-02-10T01:14:21.061Z,99716.56
2024-02-10T01:16:24.996Z,99716.84
2024-02-10T01:18:28.000Z,99713.63
2024-02-10T01:20:31.054Z,99713.63
2024-02-10T01:22:34.290Z,99707.69
2024-02-10T01:24:38.640Z,99713.38
2024-02-10T01:26:43.054Z,99717.91
2024-02-10T01:28:46.568Z,99715.59
2024-02-10T01:30:53.016Z,99715.69
2024-02-10T01:33:00.588Z,99713.22
2024-02-10T01:35:05.621Z,99707.09
2024-02-10T01:37:09.545Z,99714.28
2024-02-10T01:39:12.396Z,99697.75
2024-02-10T01:41:16.362Z,99700.28
2024-02-10T01:43:20.238Z,99695.19
2024-02-10T01:45:23.284Z,99683.97
2024-02-10T01:47:26.872Z,99698.78
2024-02-10T01:49:30.390Z,99692.66
2024-02-10T01:51:33.029Z,99685.66
2024-02-10T01:53:37.246Z,99686.50
2024-02-10T01:55:42.232Z,99675.94
2024-02-10T01:57:51.209Z,99673.38
2024-02-10T01:59:54.618Z,99679.72
2024-02-10T02:01:57.503Z,99672.75
2024-02-10T02:04:00.142Z,99657.84
2024-02-10T02:06:03.325Z,99677.19
2024-02-10T02:08:06.598Z,99669.13
2024-02-10T02:10:10.715Z,99665.78
2024-02-10T02:12:13.382Z,99663.13
2024-02-10T02:14:17.252Z,99662.19
2024-02-10T02:16:19.832Z,99661.22
2024-02-10T02:18:22.829Z,99669.66
2024-02-10T02:20:26.754Z,99690.50
2024-02-10T02:22:29.290Z,99686.94
2024-02-10T02:24:33.221Z,99705.31
2024-02-10T02:26:36.190Z,99734.84
2024-02-10T02:28:40.011Z,99731.38
2024-02-10T02:30:43.414Z,99744.69
2024-02-10T02:32:46.232Z,99742.03
2024-02-10T02:34:49.613Z,99735.91
2024-02-10T02:36:54.831Z,99723.72
2024-02-10T02:38:57.293Z,99726.28
2024-02-10T02:41:00.321Z,99729.00
2024-02-10T02:43:05.375Z,99717.59
2024-02-10T02:45:10.668Z,99707.22
2024-02-10T02:47:13.846Z,99696.44
2024-02-10T02:49:18.295Z,99693.91
2024-02-10T02:51:24.095Z,99691.38
2024-02-10T02:53:28.302Z,99688.63
2024-02-10T02:55:31.566Z,99686.69
2024-02-10T02:57:36.405Z,99668.41
2024-02-10T02:59:45.478Z,99663.13
2024-02-10T03:01:54.303Z,99652.66
2024-02-10T03:03:57.478Z,99645.66
2024-02-10T03:06:00.511Z,99637.84
2024-02-10T03:08:03.434Z,99636.97
2024-02-10T03:10:07.362Z,99646.81
2024-02-10T03:12:10.400Z,99635.00
2024-02-10T03:14:12.957Z,99622.00
2024-02-10T03:16:21.585Z,99633.31
2024-02-10T03:18:24.930Z,99640.72
2024-02-10T03:20:30.715Z,99634.69
2024-02-10T03:22:34.127Z,99643.34
2024-02-10T03:24:37.281Z,99644.84
2024-02-10T03:26:39.775Z,99643.13
2024-02-10T03:28:44.331Z,99634.25
2024-02-10T03:30:47.741Z,99636.06
2024-02-10T03:32:50.712Z,99650.97
2024-02-10T03:34:54.025Z,99665.78
2024-02-10T03:36:56.946Z,99699.13
2024-02-10T03:39:05.935Z,99704.50
2024-02-10T03:41:15.453Z,99693.06
2024-02-10T03:43:20.211Z,99699.41
2024-02-10T03:45:22.689Z,99710.91
2024-02-10T03:47:27.396Z,99711.94
2024-02-10T03:49:30.746Z,99736.59
2024-02-10T03:51:33.458Z,99717.34
2024-02-10T03:53:35.944Z,99702.25
2024-02-10T03:55:40.452Z,99696.78
2024-02-10T03:57:42.882Z,99663.31
2024-02-10T03:59:45.848Z,99669.78
2024-02-10T04:01:48.826Z,99680.53
2024-02-10T04:03:51.451Z,99669.31
2024-02-10T04:05:54.528Z,99668.38
2024-02-10T04:07:57.051Z,99666.56
2024-02-10T04:09:59.927Z,99666.75
2024-02-10T04:12:05.441Z,99665.09
2024-02-10T04:14:07.946Z,99644.81
2024-02-10T04:16:14.714Z,99639.63
2024-02-10T04:18:17.446Z,99635.06
2024-02-10T04:20:21.514Z,99637.81
2024-02-10T04:22:24.762Z,99666.75
2024-02-10T04:24:28.521Z,99657.25
2024-02-10T04:26:30.985Z,99640.34
2024-02-10T04:28:37.542Z,99629.78
2024-02-10T04:30:41.678Z,99635.06
2024-02-10T04:32:48.344Z,99619.44
2024-02-10T04:34:51.000Z,99620.19
2024-02-10T04:36:53.521Z,99613.91
2024-02-10T04:38:58.377Z,99597.13
2024-02-10T04:41:06.230Z,99595.34
2024-02-10T04:43:09.198Z,99587.50
2024-02-10T04:45:13.093Z,99590.91
2024-02-10T04:47:15.507Z,99584.13
2024-02-10T04:49:20.751Z,99592.91
2024-02-10T04:51:28.067Z,99587.50
2024-02-10T04:53:30.475Z,99591.13
2024-02-10T04:55:32.982Z,99588.34
2024-02-10T04:57:35.482Z,99583.53
2024-02-10T04:59:40.301Z,99586.06
2024-02-10T05:01:43.604Z,99590.31
2024-02-10T05:03:46.141Z,99576.34
2024-02-10T05:05:49.276Z,99584.09
2024-02-10T05:08:00.384Z,99581.44
2024-02-10T05:10:03.584Z,99577.00
2024-02-10T05:12:06.586Z,99585.69
2024-02-10T05:14:12.954Z,99586.44
2024-02-10T05:16:19.368Z,99582.00
2024-02-10T05:18:21.958Z,99584.66
2024-02-10T05:20:26.639Z,99580.13
2024-02-10T05:22:29.823Z,99588.03
2024-02-10T05:24:33.787Z,99576.44
2024-02-10T05:26:38.073Z,99574.84
2024-02-10T05:28:42.448Z,99575.59
2024-02-10T05:30:44.964Z,99571.16
2024-02-10T05:32:47.872Z,99579.94
2024-02-10T05:34:51.004Z,99572.81
2024-02-10T05:36:55.349Z,99566.72
2024-02-10T05:38:59.003Z,99564.06
2024-02-10T05:41:06.167Z,99574.50
2024-02-10T05:43:10.461Z,99571.88
2024-02-10T05:45:19.169Z,99581.50
2024-02-10T05:47:21.678Z,99572.94
2024-02-10T05:49:25.295Z,99573.88
2024-02-10T05:51:27.868Z,99574.75
2024-02-10T05:53:30.291Z,99568.50
2024-02-10T05:55:34.490Z,99570.50
2024-02-10T05:57:39.048Z,99570.59
2024-02-10T05:59:42.297Z,99561.91
2024-02-10T06:01:48.506Z,99558.41
2024-02-10T06:03:54.034Z,99563.50
2024-02-10T06:05:56.776Z,99562.75
2024-02-10T06:07:59.581Z,99560.13
2024-02-10T06:10:02.796Z,99551.25
2024-02-10T06:12:06.499Z,99554.84
2024-02-10T06:14:10.136Z,99553.03
2024-02-10T06:16:13.352Z,99547.94
2024-02-10T06:18:15.824Z,99559.28
2024-02-10T06:20:24.690Z,99556.72
2024-02-10T06:22:28.234Z,99557.56
2024-02-10T06:24:35.608Z,99565.59
2024-02-10T06:26:38.949Z,99565.78
2024-02-10T06:28:42.110Z,99562.19
2024-02-10T06:30:48.535Z,99564.84
2024-02-10T06:32:51.105Z,99571.06
2024-02-10T06:34:55.124Z,99570.22
2024-02-10T06:36:59.812Z,99567.78
2024-02-10T06:39:02.741Z,99577.22
2024-02-10T06:41:05.502Z,99568.63
2024-02-10T06:43:09.832Z,99574.66
2024-02-10T06:45:16.407Z,99572.88
2024-02-10T06:47:20.117Z,99560.78
2024-02-10T06:49:22.759Z,99571.47
2024-02-10T06:51:26.248Z,99574.09
2024-02-10T06:53:29.498Z,99574.09
2024-02-10T06:55:32.919Z,99575.78
2024-02-10T06:57:43.142Z,99576.75
2024-02-10T06:59:47.286Z,99573.16
2024-02-10T07:01:54.104Z,99574.09
2024-02-10T07:03:59.005Z,99573.16
2024-02-10T07:06:02.214Z,99574.09
2024-02-10T07:08:07.510Z,99574.00
2024-02-10T07:10:17.514Z,99587.31
2024-02-10T07:12:20.107Z,99587.50
2024-02-10T07:14:25.017Z,99580.31
2024-02-10T07:16:27.854Z,99576.94
2024-02-10T07:18:31.172Z,99574.50
2024-02-10T07:20:34.200Z,99584.03
2024-02-10T07:22:36.647Z,99574.41
2024-02-10T07:24:40.067Z,99582.22
2024-02-10T07:26:44.294Z,99578.75
2024-02-10T07:28:51.115Z,99567.44
2024-02-10T07:30:54.360Z,99573.56
2024-02-10T07:33:01.993Z,99571.88
2024-02-10T07:35:06.149Z,99574.41
2024-02-10T07:37:11.283Z,99567.44
2024-02-10T07:39:16.423Z,99569.97
2024-02-10T07:41:19.230Z,99567.44
2024-02-10T07:43:22.503Z,99565.94
2024-02-10T07:45:25.190Z,99569.97
2024-02-10T07:47:28.404Z,99588.47
2024-02-10T07:49:32.069Z,99580.56
2024-02-10T07:51:35.260Z,99572.63
2024-02-10T07:53:37.733Z,99572.72
2024-02-10T07:55:40.351Z,99578.84
2024-02-10T07:57:43.290Z,99583.19
2024-02-10T07:59:45.691Z,99588.56
2024-02-10T08:01:48.313Z,99575.25
2024-02-10T08:03:50.862Z,99570.94
2024-02-10T08:05:53.876Z,99563.19
2024-02-10T08:07:59.005Z,99572.81
2024-02-10T08:10:02.753Z,99587.72
2024-02-10T08:12:05.653Z,99580.66
2024-02-10T08:14:09.261Z,99588.56
2024-02-10T08:16:11.724Z,99584.13
2024-02-10T08:18:14.668Z,99582.44
2024-02-10T08:20:21.691Z,99577.16
2024-02-10T08:22:29.305Z,99583.28
2024-02-10T08:24:32.927Z,99579.03
2024-02-10T08:26:39.239Z,99581.69
2024-02-10T08:28:41.804Z,99591.31
2024-02-10T08:30:45.818Z,99583.47
2024-02-10T08:32:48.812Z,99583.47
2024-02-10T08:34:52.873Z,99574.81
2024-02-10T08:36:55.347Z,99577.44
2024-02-10T08:39:05.664Z,99568.94
2024-02-10T08:41:08.938Z,99586.03
2024-02-10T08:43:11.533Z,99583.56
2024-02-10T08:45:16.878Z,99576.59
2024-02-10T08:47:19.817Z,99577.44
2024-02-10T08:49:22.841Z,99590.75
2024-02-10T08:51:26.299Z,99593.19
2024-02-10T08:53:30.896Z,99579.13
2024-02-10T08:55:33.406Z,99580.09
2024-02-10T08:57:38.315Z,99595.84
2024-02-10T08:59:47.375Z,99588.00
2024-02-10T09:01:50.336Z,99587.06
2024-02-10T09:03:54.925Z,99576.50
2024-02-10T09:05:57.933Z,99579.22
2024-02-10T09:08:00.568Z,99581.03
2024-02-10T09:10:03.192Z,99573.09
2024-02-10T09:12:06.600Z,99566.03
2024-02-10T09:14:10.064Z,99546.69
2024-02-10T09:16:13.811Z,99547.44
2024-02-10T09:18:16.599Z,99557.25
2024-02-10T09:20:20.010Z,99557.25
2024-02-10T09:22:22.484Z,99553.00
2024-02-10T09:24:26.670Z,99558.94
2024-02-10T09:26:29.220Z,99568.75
2024-02-10T09:28:33.012Z,99583.94
2024-02-10T09:30:38.333Z,99575.09
2024-02-10T09:32:40.854Z,99581.31
2024-02-10T09:34:43.444Z,99586.50
2024-02-10T09:36:46.654Z,99580.38
2024-02-10T09:38:49.141Z,99578.75
2024-02-10T09:40:59.466Z,99568.19
2024-02-10T09:43:06.277Z,99572.63
2024-02-10T09:45:11.919Z,99578.84
2024-02-10T09:47:22.158Z,99592.06
2024-02-10T09:49:26.647Z,99592.25
2024-02-10T09:51:29.128Z,99604.59
2024-02-10T09:53:31.932Z,99613.38
2024-02-10T09:55:36.915Z,99611.69
2024-02-10T09:57:42.247Z,99609.03
2024-02-10T09:59:44.858Z,99609.25
2024-02-10T10:01:47.849Z,99612.75
2024-02-10T10:03:50.436Z,99620.75
2024-02-10T10:05:53.155Z,99615.66
2024-02-10T10:07:55.816Z,99620.09
2024-02-10T10:10:00.062Z,99621.91
2024-02-10T10:12:02.982Z,99622.00
2024-02-10T10:14:05.486Z,99628.22
2024-02-10T10:16:12.164Z,99627.38
2024-02-10T10:18:16.571Z,99630.94
2024-02-10T10:20:20.664Z,99627.63
2024-02-10T10:22:23.231Z,99624.25
2024-02-10T10:24:29.790Z,99628.50
2024-02-10T10:26:33.728Z,99622.53
2024-02-10T10:28:37.618Z,99621.69
2024-02-10T10:30:44.018Z,99622.72
2024-02-10T10:32:53.852Z,99620.94
2024-02-10T10:34:59.928Z,99623.56
2024-02-10T10:37:06.361Z,99613.94
2024-02-10T10:39:12.862Z,99613.16
2024-02-10T10:41:20.717Z,99615.06
2024-02-10T10:43:26.149Z,99614.13
2024-02-10T10:45:31.987Z,99614.13
2024-02-10T10:47:43.299Z,99620.34
2024-02-10T10:49:45.881Z,99614.22
2024-02-10T10:52:03.707Z,99608.19
2024-02-10T10:54:09.754Z,99611.69
2024-02-10T10:56:16.724Z,99620.53
2024-02-10T10:58:23.172Z,99622.44
2024-02-10T11:00:28.265Z,99620.53
2024-02-10T11:02:44.189Z,99617.22
2024-02-10T11:04:47.764Z,99613.75
2024-02-10T11:06:57.961Z,99618.09
2024-02-10T11:09:04.435Z,99612.03
2024-02-10T11:11:08.870Z,99610.34
2024-02-10T11:13:24.390Z,99610.25
2024-02-10T11:15:28.042Z,99610.44
2024-02-10T11:17:36.775Z,99602.63
2024-02-10T11:19:40.222Z,99607.03
2024-02-10T11:21:42.968Z,99597.34
2024-02-10T11:23:56.943Z,99595.53
2024-02-10T11:26:00.964Z,99598.28
2024-02-10T11:28:04.655Z,99603.56
2024-02-10T11:30:08.585Z,99602.63
2024-02-10T11:32:14.220Z,99605.44
2024-02-10T11:34:21.206Z,99615.81
2024-02-10T11:36:27.735Z,99615.16
2024-02-10T11:38:32.240Z,99611.56
2024-02-10T11:40:35.395Z,99615.16
2024-02-10T11:42:38.674Z,99603.91
2024-02-10T11:44:41.106Z,99617.78
2024-02-10T11:46:43.957Z,99619.47
2024-02-10T11:48:47.489Z,99620.50
2024-02-10T11:51:02.490Z,99615.22
2024-02-10T11:53:07.081Z,99620.50
2024-02-10T11:55:11.964Z,99624.00
2024-02-10T11:57:14.595Z,99629.38
2024-02-10T11:59:18.760Z,99630.22
2024-02-10T12:01:21.432Z,99622.47
2024-02-10T12:03:25.980Z,99619.97
2024-02-10T12:05:32.413Z,99630.53
2024-02-10T12:07:38.525Z,99637.28
2024-02-10T12:09:41.669Z,99634.72
2024-02-10T12:11:46.091Z,99649.00
2024-02-10T12:13:51.450Z,99644.56
2024-02-10T12:16:01.124Z,99645.50
2024-02-10T12:18:03.922Z,99652.56
2024-02-10T12:20:06.970Z,99642.97
2024-02-10T12:22:11.531Z,99650.13
2024-02-10T12:24:23.238Z,99649.16
2024-02-10T12:26:26.135Z,99643.13
2024-02-10T12:28:30.043Z,99645.69
2024-02-10T12:30:33.695Z,99649.16
2024-02-10T12:32:36.721Z,99650.13
2024-02-10T12:34:39.405Z,99650.13
2024-02-10T12:36:42.081Z,99647.47
2024-02-10T12:38:45.304Z,99646.53
2024-02-10T12:40:47.894Z,99648.41
2024-02-10T12:42:52.686Z,99640.59
2024-02-10T12:44:56.013Z,99643.13
2024-02-10T12:46:58.484Z,99648.41
2024-02-10T12:49:02.196Z,99647.47
2024-02-10T12:51:05.019Z,99644.84
2024-02-10T12:53:07.604Z,99647.38
2024-02-10T12:55:15.278Z,99644.16
2024-02-10T12:57:20.346Z,99653.69
2024-02-10T12:59:24.099Z,99645.94
2024-02-10T13:01:27.593Z,99650.13
2024-02-10T13:03:30.416Z,99627.84
2024-02-10T13:05:33.565Z,99643.91
2024-02-10T13:07:36.148Z,99646.53
2024-02-10T13:09:38.655Z,99650.03
2024-02-10T13:11:41.131Z,99658.78
2024-02-10T13:13:46.281Z,99658.78
2024-02-10T13:15:48.873Z,99656.91
2024-02-10T13:17:53.213Z,99660.41
2024-02-10T13:19:56.124Z,99655.97
2024-02-10T13:21:58.743Z,99650.78
2024-02-10T13:24:01.186Z,99654.16
2024-02-10T13:26:03.906Z,99651.50
2024-02-10T13:28:13.030Z,99654.81
2024-02-10T13:30:15.752Z,99659.91
2024-02-10T13:32:18.669Z,99654.63
2024-02-10T13:34:31.684Z,99650.22
2024-02-10T13:36:44.625Z,99648.25
2024-02-10T13:39:05.289Z,99657.84
2024-02-10T13:41:26.561Z,99650.88
2024-02-10T13:43:47.658Z,99656.84
2024-02-10T13:46:08.808Z,99657.59
2024-02-10T13:48:29.618Z,99661.84
2024-02-10T13:50:50.516Z,99649.66
2024-02-10T13:53:11.222Z,99647.78
2024-02-10T13:55:32.054Z,99642.41
2024-02-10T13:57:53.831Z,99652.03
2024-02-10T13:59:56.282Z,99647.44
2024-02-10T14:02:07.413Z,99642.91
2024-02-10T14:04:16.718Z,99640.44
2024-02-10T14:06:33.884Z,99652.44
2024-02-10T14:08:43.021Z,99639.41
2024-02-10T14:10:56.338Z,99650.47
2024-02-10T14:13:10.813Z,99651.13
2024-02-10T14:15:22.245Z,99645.84
2024-02-10T14:17:26.433Z,99644.72
2024-02-10T14:19:28.906Z,99646.31
2024-02-10T14:21:34.850Z,99646.97
2024-02-10T14:23:37.441Z,99641.50
2024-02-10T14:25:40.329Z,99636.22
2024-02-10T14:27:44.339Z,99644.44
2024-02-10T14:29:48.083Z,99644.91
2024-02-10T14:31:54.197Z,99637.59
2024-02-10T14:33:57.068Z,99639.03
2024-02-10T14:36:18.984Z,99637.78
2024-02-10T14:38:48.237Z,99624.47
2024-02-10T14:40:50.813Z,99632.03
2024-02-10T14:42:56.061Z,99633.59
2024-02-10T14:44:58.603Z,99637.75
2024-02-10T14:47:03.803Z,99634.25
2024-02-10T14:49:06.407Z,99628.69
2024-02-10T14:51:12.803Z,99628.50
2024-02-10T14:53:15.394Z,99631.03
2024-02-10T14:55:19.847Z,99622.91
2024-02-10T14:57:23.731Z,99625.38
2024-02-10T14:59:26.188Z,99626.84
2024-02-10T15:01:33.075Z,99629.47
2024-02-10T15:03:39.467Z,99626.84
2024-02-10T15:05:43.753Z,99635.31
2024-02-10T15:07:46.176Z,99631.53
2024-02-10T15:09:48.758Z,99626.44
2024-02-10T15:11:51.210Z,99627.94
2024-02-10T15:13:53.672Z,99629.44
2024-02-10T15:15:56.174Z,99631.91
2024-02-10T15:18:02.047Z,99625.97
2024-02-10T15:20:07.744Z,99621.72
2024-02-10T15:22:11.027Z,99634.94
2024-02-10T15:24:13.824Z,99628.78
2024-02-10T15:26:22.061Z,99621.91
2024-02-10T15:28:25.061Z,99621.91
2024-02-10T15:30:27.652Z,99625.41
2024-02-10T15:32:31.909Z,99625.22
2024-02-10T15:34:45.343Z,99619.81
2024-02-10T15:36:54.707Z,99620.75
2024-02-10T15:39:01.693Z,99619.81
2024-02-10T15:41:04.951Z,99616.13
2024-02-10T15:43:08.019Z,99616.03
2024-02-10T15:45:11.815Z,99614.13
2024-02-10T15:47:16.190Z,99608.41
2024-02-10T15:49:22.014Z,99616.81
2024-02-10T15:51:24.512Z,99609.31
2024-02-10T15:53:29.694Z,99607.41
2024-02-10T15:55:32.207Z,99611.88
2024-02-10T15:57:34.681Z,99607.13
2024-02-10T15:59:39.758Z,99609.47
2024-02-10T16:01:43.275Z,99615.94
2024-02-10T16:03:46.382Z,99611.91
2024-02-10T16:05:53.898Z,99616.91
2024-02-10T16:07:56.473Z,99613.19
2024-02-10T16:09:58.891Z,99609.50
2024-02-10T16:12:01.674Z,99610.13
2024-02-10T16:14:04.277Z,99608.94
2024-02-10T16:16:07.256Z,99607.59
2024-02-10T16:18:16.257Z,99610.78
2024-02-10T16:20:23.189Z,99614.47
2024-02-10T16:22:28.155Z,99614.78
2024-02-10T16:24:31.342Z,99612.19
2024-02-10T16:26:35.077Z,99615.16
2024-02-10T16:28:39.823Z,99607.84
2024-02-10T16:30:43.005Z,99618.66
2024-02-10T16:32:50.402Z,99617.28
2024-02-10T16:34:55.892Z,99614.59
2024-02-10T16:37:00.021Z,99617.41
2024-02-10T16:39:04.391Z,99603.84
2024-02-10T16:41:06.828Z,99609.44
2024-02-10T16:43:09.797Z,99603.16
2024-02-10T16:45:12.244Z,99604.25
2024-02-10T16:47:15.382Z,99604.88
2024-02-10T16:49:22.774Z,99602.81
2024-02-10T16:51:26.677Z,99594.50
2024-02-10T16:53:29.327Z,99586.44
2024-02-10T16:55:35.636Z,99580.28
2024-02-10T16:57:39.198Z,99585.03
2024-02-10T16:59:41.613Z,99569.97
2024-02-10T17:01:44.742Z,99575.16
2024-02-10T17:03:47.356Z,99573.34
2024-02-10T17:05:59.254Z,99576.16
2024-02-10T17:08:04.714Z,99576.88
2024-02-10T17:10:08.376Z,99577.63
2024-02-10T17:12:11.407Z,99573.28
2024-02-10T17:14:14.010Z,99576.66
2024-02-10T17:16:19.486Z,99584.84
2024-02-10T17:18:22.203Z,99573.72
2024-02-10T17:20:27.344Z,99576.13
2024-02-10T17:22:29.838Z,99580.81
2024-02-10T17:24:32.355Z,99570.75
2024-02-10T17:26:40.255Z,99575.81
2024-02-10T17:28:44.868Z,99571.34
2024-02-10T17:30:49.660Z,99571.78
2024-02-10T17:32:52.223Z,99569.91
2024-02-10T17:34:56.879Z,99563.88
2024-02-10T17:37:00.218Z,99575.78
2024-02-10T17:39:02.833Z,99569.00
2024-02-10T17:41:10.741Z,99566.81
2024-02-10T17:43:17.813Z,99564.09
2024-02-10T17:45:20.431Z,99572.03
2024-02-10T17:47:25.524Z,99556.88
2024-02-10T17:49:28.175Z,99569.38
2024-02-10T17:51:31.704Z,99566.19
2024-02-10T17:53:36.799Z,99565.47
2024-02-10T17:55:40.078Z,99572.81
2024-02-10T17:57:43.803Z,99565.81
2024-02-10T17:59:46.740Z,99557.44
2024-02-10T18:01:49.704Z,99562.31
2024-02-10T18:03:53.065Z,99564.13
2024-02-10T18:05:55.958Z,99557.34
2024-02-10T18:07:59.699Z,99549.84
2024-02-10T18:10:06.370Z,99559.72
2024-02-10T18:12:10.306Z,99554.09
2024-02-10T18:14:14.399Z,99552.50
2024-02-10T18:16:17.603Z,99549.22
2024-02-10T18:18:20.630Z,99559.69
2024-02-10T18:20:23.437Z,99553.66
2024-02-10T18:22:29.962Z,99551.25
2024-02-10T18:24:34.320Z,99550.41
2024-02-10T18:26:41.194Z,99544.56
2024-02-10T18:28:45.797Z,99546.38
2024-02-10T18:30:50.128Z,99548.19
2024-02-10T18:32:52.713Z,99540.34
2024-02-10T18:34:56.452Z,99545.53
2024-02-10T18:36:59.067Z,99540.44
2024-02-10T18:39:01.528Z,99545.22
2024-02-10T18:41:04.551Z,99541.72
2024-02-10T18:43:07.712Z,99537.47
2024-02-10T18:45:11.584Z,99542.47
2024-02-10T18:47:15.103Z,99541.72
2024-02-10T18:49:18.211Z,99537.16
2024-02-10T18:51:22.945Z,99531.03
2024-02-10T18:53:25.389Z,99537.16
2024-02-10T18:55:30.451Z,99537.91
2024-02-10T18:57:33.019Z,99538.72
2024-02-10T18:59:36.473Z,99542.47
2024-02-10T19:01:43.453Z,99537.28
2024-02-10T19:03:49.361Z,99541.63
2024-02-10T19:05:53.131Z,99542.47
2024-02-10T19:07:56.988Z,99530.19
2024-02-10T19:10:00.434Z,99531.97
2024-02-10T19:12:03.204Z,99532.63
2024-02-10T19:14:08.674Z,99528.38
2024-02-10T19:16:11.486Z,99531.41
2024-02-10T19:18:16.257Z,99532.25
2024-02-10T19:20:20.665Z,99533.84
2024-02-10T19:22:24.238Z,99541.69
2024-02-10T19:24:27.601Z,99529.50
2024-02-10T19:26:30.504Z,99543.50
2024-02-10T19:28:33.587Z,99544.25
2024-02-10T19:30:39.480Z,99535.34
2024-02-10T19:32:44.435Z,99545.94
2024-02-10T19:34:47.388Z,99538.00
2024-02-10T19:36:50.015Z,99542.34
2024-02-10T19:38:52.575Z,99543.28
2024-02-10T19:40:56.676Z,99546.25
2024-02-10T19:42:59.552Z,99553.91
2024-02-10T19:45:02.082Z,99555.47
2024-02-10T19:47:04.932Z,99554.97
2024-02-10T19:49:10.713Z,99551.47
2024-02-10T19:51:15.990Z,99536.00
2024-02-10T19:53:21.040Z,99547.00
2024-02-10T19:55:24.246Z,99550.63
2024-02-10T19:57:31.095Z,99552.31
2024-02-10T19:59:33.531Z,99547.13
2024-02-10T20:01:36.400Z,99551.78
2024-02-10T20:03:40.209Z,99556.53
2024-02-10T20:05:43.286Z,99553.78
2024-02-10T20:07:46.438Z,99553.34
2024-02-10T20:09:51.990Z,99557.78
2024-02-10T20:11:55.798Z,99566.47
2024-02-10T20:14:01.227Z,99570.06
2024-02-10T20:16:04.044Z,99558.97
2024-02-10T20:18:07.607Z,99567.78
2024-02-10T20:20:18.828Z,99569.34
2024-02-10T20:22:22.341Z,99572.13
2024-02-10T20:24:29.730Z,99575.91
2024-02-10T20:26:33.304Z,99574.97
2024-02-10T20:28:36.661Z,99578.78
2024-02-10T20:30:42.124Z,99573.78
2024-02-10T20:32:45.497Z,99586.06
2024-02-10T20:34:48.393Z,99585.41
2024-02-10T20:36:51.362Z,99584.03
2024-02-10T20:38:54.198Z,99588.56
2024-02-10T20:40:57.085Z,99588.56
2024-02-10T20:43:02.725Z,99587.22
2024-02-10T20:45:06.059Z,99589.00
2024-02-10T20:47:08.523Z,99574.69
2024-02-10T20:49:11.074Z,99588.47
2024-02-10T20:51:15.834Z,99589.72
2024-02-10T20:53:18.284Z,99586.41
2024-02-10T20:55:24.234Z,99595.94
2024-02-10T20:57:30.491Z,99585.03
2024-02-10T20:59:34.339Z,99611.50
2024-02-10T21:01:36.920Z,99614.34
2024-02-10T21:03:39.505Z,99619.91
2024-02-10T21:05:42.482Z,99619.56
2024-02-10T21:07:46.237Z,99625.88
2024-02-10T21:09:49.592Z,99632.34
2024-02-10T21:11:52.116Z,99629.16
2024-02-10T21:13:54.693Z,99620.28
2024-02-10T21:16:00.015Z,99630.56
2024-02-10T21:18:06.755Z,99628.22
2024-02-10T21:20:16.215Z,99643.22
2024-02-10T21:22:19.637Z,99636.56
2024-02-10T21:24:24.776Z,99630.81
2024-02-10T21:26:28.117Z,99638.44
2024-02-10T21:28:31.153Z,99632.59
2024-02-10T21:30:34.613Z,99639.78
2024-02-10T21:32:37.523Z,99639.22
2024-02-10T21:34:40.523Z,99647.13
2024-02-10T21:36:46.523Z,99635.56
2024-02-10T21:38:49.595Z,99656.31
2024-02-10T21:40:52.299Z,99635.19
2024-02-10T21:42:54.818Z,99645.47
2024-02-10T21:45:00.027Z,99644.81
2024-02-10T21:47:02.909Z,99651.13
2024-02-10T21:49:05.653Z,99649.50
2024-02-10T21:51:08.589Z,99656.59
2024-02-10T21:53:11.846Z,99654.16
2024-02-10T21:55:14.721Z,99656.03
2024-02-10T21:57:18.133Z,99658.59
2024-02-10T21:59:20.660Z,99661.31
2024-02-10T22:01:24.437Z,99651.31
2024-02-10T22:03:26.956Z,99668.66
2024-02-10T22:05:30.330Z,99670.56
2024-02-10T22:07:33.274Z,99683.66
2024-02-10T22:09:35.829Z,99677.72
2024-02-10T22:11:38.560Z,99680.44
2024-02-10T22:13:41.752Z,99684.22
2024-02-10T22:15:44.344Z,99691.47
2024-02-10T22:17:50.586Z,99687.09
2024-02-10T22:19:53.221Z,99687.31
2024-02-10T22:21:55.997Z,99696.16
2024-02-10T22:23:59.258Z,99697.28
2024-02-10T22:26:02.440Z,99705.19
2024-02-10T22:28:05.380Z,99703.59
2024-02-10T22:30:08.564Z,99704.69
2024-02-10T22:32:12.568Z,99698.94
2024-02-10T22:34:16.342Z,99711.19
2024-02-10T22:36:20.096Z,99712.97
2024-02-10T22:38:22.672Z,99714.97
2024-02-10T22:40:28.015Z,99722.97
2024-02-10T22:42:33.121Z,99716.25
2024-02-10T22:44:35.940Z,99714.81
2024-02-10T22:46:42.841Z,99715.84
2024-02-10T22:48:45.755Z,99719.50
2024-02-10T22:50:49.027Z,99723.09
2024-02-10T22:52:52.117Z,99729.38
2024-02-10T22:54:55.805Z,99733.72
2024-02-10T22:56:58.572Z,99739.00
2024-02-10T22:59:01.143Z,99739.19
2024-02-10T23:01:04.129Z,99749.75
2024-02-10T23:03:06.847Z,99739.47
2024-02-10T23:05:09.641Z,99747.53
2024-02-10T23:07:12.840Z,99738.34
2024-02-10T23:09:15.504Z,99752.31
2024-02-10T23:11:21.310Z,99756.56
2024-02-10T23:13:27.329Z,99762.84
2024-02-10T23:15:32.788Z,99755.03
2024-02-10T23:17:38.982Z,99770.84
2024-02-10T23:19:51.275Z,99767.38
2024-02-10T23:21:54.713Z,99767.44
2024-02-10T23:24:01.169Z,99764.16
2024-02-10T23:26:04.672Z,99754.88
2024-02-10T23:28:07.096Z,99765.44
2024-02-10T23:30:11.464Z,99776.66
2024-02-10T23:32:14.500Z,99772.41
2024-02-10T23:34:20.108Z,99769.00
2024-02-10T23:36:29.189Z,99775.13
2024-02-10T23:38:32.187Z,99770.94
2024-02-10T23:40:36.345Z,99778.00
2024-02-10T23:42:38.974Z,99777.06
2024-02-10T23:44:43.233Z,99774.44
2024-02-10T23:46:45.784Z,99773.59
2024-02-10T23:48:54.045Z,99779.72
2024-02-10T23:50:58.719Z,99780.66
2024-02-10T23:53:02.929Z,99794.69
2024-02-10T23:55:08.329Z,99781.59
2024-02-10T23:57:11.623Z,99792.97
2024-02-10T23:59:14.584Z,99793.16
